createdAt,value
2018-09-11T00:00:56.017Z,101900.83
2018-09-11T00:03:24.389Z,101907.81
2018-09-11T00:05:52.780Z,101899.06
2018-09-11T00:08:21.136Z,101881.55
2018-09-11T00:10:49.534Z,101859.66
2018-09-11T00:13:17.899Z,101865.78
2018-09-11T00:15:46.294Z,101864.89
2018-09-11T00:18:14.667Z,101860.52
2018-09-11T00:20:43.054Z,101865.78
2018-09-11T00:23:11.445Z,101865.34
2018-09-11T00:25:39.829Z,101868.39
2018-09-11T00:28:08.315Z,101862.26
2018-09-11T00:30:36.705Z,101870.61
2018-09-11T00:33:05.074Z,101869.28
2018-09-11T00:35:33.467Z,101873.22
2018-09-11T00:38:01.845Z,101877.17
2018-09-11T00:40:30.260Z,101880.66
2018-09-11T00:42:58.635Z,101880.23
2018-09-11T00:45:27.033Z,101867.97
2018-09-11T00:47:55.397Z,101879.38
2018-09-11T00:50:23.764Z,101891.63
2018-09-11T00:52:52.162Z,101882.00
2018-09-11T00:55:20.525Z,101872.34
2018-09-11T00:57:48.927Z,101870.17
2018-09-11T01:00:17.323Z,101865.78
2018-09-11T01:02:45.767Z,101870.15
2018-09-11T01:05:14.129Z,101867.98
2018-09-11T01:07:42.530Z,101857.02
2018-09-11T01:10:11.453Z,101863.58
2018-09-11T01:12:39.848Z,101864.03
2018-09-11T01:15:09.214Z,101857.48
2018-09-11T01:17:37.819Z,101853.08
2018-09-11T01:20:06.782Z,101854.83
2018-09-11T01:22:35.193Z,101844.33
2018-09-11T01:25:03.553Z,101836.45
2018-09-11T01:27:31.955Z,101842.56
2018-09-11T01:30:00.323Z,101839.50
2018-09-11T01:32:28.709Z,101846.50
2018-09-11T01:34:57.078Z,101840.83
2018-09-11T01:37:25.466Z,101844.75
2018-09-11T01:39:53.839Z,101858.78
2018-09-11T01:42:22.231Z,101853.52
2018-09-11T01:44:50.596Z,101853.09
2018-09-11T01:47:18.987Z,101843.02
2018-09-11T01:49:47.347Z,101843.90
2018-09-11T01:52:15.738Z,101841.68
2018-09-11T01:54:44.112Z,101841.26
2018-09-11T01:57:12.506Z,101841.70
2018-09-11T01:59:40.874Z,101846.09
2018-09-11T02:02:09.262Z,101841.69
2018-09-11T02:04:37.630Z,101843.00
2018-09-11T02:07:06.026Z,101837.73
2018-09-11T02:09:34.398Z,101844.76
2018-09-11T02:12:02.796Z,101845.19
2018-09-11T02:14:31.170Z,101841.69
2018-09-11T02:16:59.566Z,101844.31
2018-09-11T02:19:27.934Z,101847.37
2018-09-11T02:21:56.346Z,101853.07
2018-09-11T02:24:24.709Z,101850.43
2018-09-11T02:26:53.099Z,101856.57
2018-09-11T02:29:21.470Z,101855.69
2018-09-11T02:31:49.870Z,101860.48
2018-09-11T02:34:18.238Z,101868.82
2018-09-11T02:36:46.622Z,101873.20
2018-09-11T02:39:15.002Z,101871.44
2018-09-11T02:41:43.383Z,101876.66
2018-09-11T02:44:12.097Z,101871.88
2018-09-11T02:46:40.583Z,101878.42
2018-09-11T02:49:08.980Z,101873.59
2018-09-11T02:51:37.362Z,101879.72
2018-09-11T02:54:05.759Z,101877.98
2018-09-11T02:56:34.132Z,101883.23
2018-09-11T02:59:02.531Z,101885.40
2018-09-11T03:01:30.899Z,101884.53
2018-09-11T03:03:59.293Z,101886.70
2018-09-11T03:06:29.384Z,101883.21
2018-09-11T03:08:57.774Z,101886.28
2018-09-11T03:11:26.138Z,101878.39
2018-09-11T03:13:54.532Z,101888.02
2018-09-11T03:16:22.898Z,101883.23
2018-09-11T03:18:51.366Z,101881.92
2018-09-11T03:21:19.710Z,101874.02
2018-09-11T03:23:48.138Z,101868.33
2018-09-11T03:26:16.494Z,101872.73
2018-09-11T03:28:44.889Z,101871.44
2018-09-11T03:31:13.257Z,101876.24
2018-09-11T03:33:41.651Z,101869.23
2018-09-11T03:36:10.028Z,101866.16
2018-09-11T03:38:38.424Z,101869.66
2018-09-11T03:41:06.997Z,101864.87
2018-09-11T03:43:35.391Z,101868.81
2018-09-11T03:46:03.762Z,101865.31
2018-09-11T03:48:32.166Z,101864.00
2018-09-11T03:51:00.542Z,101852.59
2018-09-11T03:53:28.931Z,101853.05
2018-09-11T03:55:57.294Z,101852.61
2018-09-11T03:58:25.716Z,101853.48
2018-09-11T04:00:54.090Z,101852.61
2018-09-11T04:03:22.483Z,101854.80
2018-09-11T04:05:50.858Z,101851.30
2018-09-11T04:08:19.243Z,101845.60
2018-09-11T04:10:47.615Z,101849.11
2018-09-11T04:13:16.009Z,101850.87
2018-09-11T04:15:44.379Z,101848.23
2018-09-11T04:18:12.863Z,101848.67
2018-09-11T04:20:41.242Z,101846.48
2018-09-11T04:23:09.674Z,101850.86
2018-09-11T04:25:38.093Z,101843.41
2018-09-11T04:28:06.478Z,101841.22
2018-09-11T04:30:35.003Z,101845.15
2018-09-11T04:33:03.823Z,101841.20
2018-09-11T04:35:32.206Z,101844.72
2018-09-11T04:38:00.657Z,101841.64
2018-09-11T04:40:29.070Z,101849.53
2018-09-11T04:42:57.491Z,101849.07
2018-09-11T04:45:25.863Z,101851.71
2018-09-11T04:47:54.226Z,101845.12
2018-09-11T04:50:22.611Z,101840.33
2018-09-11T04:52:50.983Z,101840.77
2018-09-11T04:55:19.383Z,101837.69
2018-09-11T04:57:47.758Z,101833.32
2018-09-11T05:00:16.150Z,101835.48
2018-09-11T05:02:44.517Z,101837.70
2018-09-11T05:05:12.912Z,101840.73
2018-09-11T05:07:41.311Z,101832.40
2018-09-11T05:10:09.718Z,101831.53
2018-09-11T05:12:38.091Z,101831.07
2018-09-11T05:15:06.492Z,101837.63
2018-09-11T05:17:35.053Z,101837.65
2018-09-11T05:20:03.456Z,101829.76
2018-09-11T05:22:31.862Z,101831.52
2018-09-11T05:25:00.250Z,101835.45
2018-09-11T05:27:28.675Z,101832.38
2018-09-11T05:29:57.091Z,101838.09
2018-09-11T05:32:25.456Z,101846.84
2018-09-11T05:34:53.842Z,101831.09
2018-09-11T05:37:22.220Z,101836.77
2018-09-11T05:39:50.614Z,101835.89
2018-09-11T05:42:19.095Z,101832.40
2018-09-11T05:44:47.523Z,101835.89
2018-09-11T05:47:15.969Z,101834.13
2018-09-11T05:49:44.309Z,101830.64
2018-09-11T05:52:12.703Z,101832.38
2018-09-11T05:54:41.102Z,101835.02
2018-09-11T05:57:09.462Z,101838.50
2018-09-11T05:59:37.850Z,101840.70
2018-09-11T06:02:07.002Z,101849.87
2018-09-11T06:04:35.390Z,101850.75
2018-09-11T06:07:03.919Z,101852.93
2018-09-11T06:09:32.309Z,101848.53
2018-09-11T06:12:00.682Z,101851.17
2018-09-11T06:14:29.074Z,101841.97
2018-09-11T06:16:57.445Z,101836.28
2018-09-11T06:19:25.857Z,101831.07
2018-09-11T06:21:54.251Z,101829.30
2018-09-11T06:24:22.638Z,101822.73
2018-09-11T06:26:51.010Z,101817.06
2018-09-11T06:29:19.478Z,101810.53
2018-09-11T06:31:47.799Z,101812.70
2018-09-11T06:34:16.194Z,101806.16
2018-09-11T06:36:44.563Z,101807.05
2018-09-11T06:39:12.964Z,101811.01
2018-09-11T06:41:41.349Z,101812.75
2018-09-11T06:44:09.756Z,101804.88
2018-09-11T06:46:38.130Z,101807.52
2018-09-11T06:49:06.498Z,101800.08
2018-09-11T06:51:34.903Z,101797.45
2018-09-11T06:54:03.299Z,101794.81
2018-09-11T06:56:31.702Z,101798.75
2018-09-11T06:59:00.218Z,101793.94
2018-09-11T07:01:28.602Z,101796.56
2018-09-11T07:03:56.973Z,101794.81
2018-09-11T07:06:25.366Z,101788.67
2018-09-11T07:08:53.738Z,101786.94
2018-09-11T07:11:22.129Z,101779.05
2018-09-11T07:13:50.494Z,101774.27
2018-09-11T07:16:18.891Z,101764.20
2018-09-11T07:18:47.266Z,101766.39
2018-09-11T07:21:15.690Z,101765.51
2018-09-11T07:23:44.057Z,101768.56
2018-09-11T07:26:12.584Z,101772.94
2018-09-11T07:28:40.931Z,101777.32
2018-09-11T07:31:09.323Z,101771.63
2018-09-11T07:33:37.695Z,101769.02
2018-09-11T07:36:06.085Z,101776.01
2018-09-11T07:38:34.458Z,101788.28
2018-09-11T07:41:02.854Z,101779.07
2018-09-11T07:43:31.235Z,101778.22
2018-09-11T07:45:59.626Z,101778.66
2018-09-11T07:48:28.002Z,101772.95
2018-09-11T07:50:56.448Z,101786.95
2018-09-11T07:53:24.821Z,101788.27
2018-09-11T07:55:53.219Z,101783.45
2018-09-11T07:58:21.627Z,101775.58
2018-09-11T08:00:50.170Z,101769.91
2018-09-11T08:03:18.538Z,101766.84
2018-09-11T08:05:46.934Z,101764.66
2018-09-11T08:08:15.339Z,101758.51
2018-09-11T08:10:43.717Z,101764.21
2018-09-11T08:13:12.090Z,101764.19
2018-09-11T08:15:40.484Z,101766.36
2018-09-11T08:18:08.862Z,101757.57
2018-09-11T08:20:37.259Z,101754.92
2018-09-11T08:23:05.767Z,101761.09
2018-09-11T08:25:34.158Z,101749.22
2018-09-11T08:28:02.559Z,101747.91
2018-09-11T08:30:32.503Z,101737.81
2018-09-11T08:33:01.886Z,101751.39
2018-09-11T08:35:30.451Z,101753.15
2018-09-11T08:37:58.946Z,101754.91
2018-09-11T08:40:27.338Z,101757.55
2018-09-11T08:42:55.711Z,101745.31
2018-09-11T08:45:24.174Z,101736.09
2018-09-11T08:47:52.542Z,101731.30
2018-09-11T08:50:20.911Z,101733.91
2018-09-11T08:52:49.328Z,101745.27
2018-09-11T08:55:17.695Z,101750.08
2018-09-11T08:57:46.096Z,101757.89
2018-09-11T09:00:14.462Z,101753.45
2018-09-11T09:02:42.870Z,101753.84
2018-09-11T09:05:11.246Z,101737.99
2018-09-11T09:07:39.690Z,101731.38
2018-09-11T09:10:08.131Z,101728.21
2018-09-11T09:12:36.556Z,101743.92
2018-09-11T09:15:04.937Z,101746.05
2018-09-11T09:17:33.340Z,101740.72
2018-09-11T09:20:01.706Z,101745.91
2018-09-11T09:22:30.115Z,101744.98
2018-09-11T09:24:58.486Z,101734.45
2018-09-11T09:27:26.923Z,101733.12
2018-09-11T09:29:55.298Z,101724.70
2018-09-11T09:32:23.698Z,101719.31
2018-09-11T09:34:52.074Z,101732.28
2018-09-11T09:37:20.482Z,101727.69
2018-09-11T09:39:48.857Z,101724.41
2018-09-11T09:42:17.264Z,101724.20
2018-09-11T09:44:45.646Z,101719.17
2018-09-11T09:47:14.067Z,101712.91
2018-09-11T09:49:42.670Z,101712.78
2018-09-11T09:52:11.062Z,101710.95
2018-09-11T09:54:39.437Z,101724.53
2018-09-11T09:57:07.828Z,101721.34
2018-09-11T09:59:36.194Z,101713.34
2018-09-11T10:02:08.788Z,101717.17
2018-09-11T10:04:37.170Z,101726.81
2018-09-11T10:07:05.579Z,101724.05
2018-09-11T10:09:33.947Z,101714.80
2018-09-11T10:12:02.342Z,101712.58
2018-09-11T10:14:30.715Z,101692.69
2018-09-11T10:16:59.112Z,101699.17
2018-09-11T10:19:27.490Z,101695.46
2018-09-11T10:21:55.913Z,101679.86
2018-09-11T10:24:24.295Z,101677.86
2018-09-11T10:26:52.685Z,101682.41
2018-09-11T10:29:21.056Z,101678.27
2018-09-11T10:31:49.447Z,101683.72
2018-09-11T10:34:17.828Z,101665.86
2018-09-11T10:36:46.223Z,101652.38
2018-09-11T10:39:14.624Z,101656.97
2018-09-11T10:41:43.038Z,101645.62
2018-09-11T10:44:11.443Z,101640.93
2018-09-11T10:46:39.810Z,101640.16
2018-09-11T10:49:08.207Z,101647.42
2018-09-11T10:51:36.575Z,101624.42
2018-09-11T10:54:04.975Z,101640.33
2018-09-11T10:56:33.339Z,101635.72
2018-09-11T10:59:01.737Z,101637.37
2018-09-11T11:01:30.119Z,101632.87
2018-09-11T11:03:58.546Z,101627.52
2018-09-11T11:06:26.918Z,101621.14
2018-09-11T11:08:55.319Z,101622.63
2018-09-11T11:11:23.702Z,101626.05
2018-09-11T11:13:52.095Z,101630.58
2018-09-11T11:16:20.495Z,101635.62
2018-09-11T11:18:48.897Z,101632.75
2018-09-11T11:21:17.630Z,101623.28
2018-09-11T11:23:46.162Z,101613.75
2018-09-11T11:26:14.534Z,101614.78
2018-09-11T11:28:42.974Z,101613.20
2018-09-11T11:31:11.355Z,101606.63
2018-09-11T11:33:39.747Z,101605.63
2018-09-11T11:36:08.191Z,101606.29
2018-09-11T11:38:36.539Z,101601.62
2018-09-11T11:41:04.908Z,101602.27
2018-09-11T11:43:33.303Z,101599.78
2018-09-11T11:46:01.671Z,101583.59
2018-09-11T11:48:30.070Z,101583.81
2018-09-11T11:50:58.430Z,101573.91
2018-09-11T11:53:26.830Z,101582.23
2018-09-11T11:55:55.255Z,101582.72
2018-09-11T11:58:23.654Z,101583.52
2018-09-11T12:00:52.081Z,101582.94
2018-09-11T12:03:20.474Z,101577.03
2018-09-11T12:05:48.838Z,101572.89
2018-09-11T12:08:17.231Z,101565.59
2018-09-11T12:10:45.639Z,101560.55
2018-09-11T12:13:14.033Z,101557.09
2018-09-11T12:15:42.407Z,101551.04
2018-09-11T12:18:10.810Z,101557.79
2018-09-11T12:20:39.182Z,101558.47
2018-09-11T12:23:07.607Z,101560.48
2018-09-11T12:25:36.130Z,101558.43
2018-09-11T12:28:04.398Z,101553.76
2018-09-11T12:30:32.771Z,101557.09
2018-09-11T12:33:01.366Z,101564.08
2018-09-11T12:35:29.742Z,101569.75
2018-09-11T12:37:58.126Z,101560.30
2018-09-11T12:40:26.519Z,101551.17
2018-09-11T12:42:54.935Z,101554.86
2018-09-11T12:45:23.307Z,101550.59
2018-09-11T12:47:52.144Z,101545.71
2018-09-11T12:50:20.107Z,101552.81
2018-09-11T12:52:48.510Z,101557.25
2018-09-11T12:55:16.910Z,101559.42
2018-09-11T12:57:45.299Z,101572.05
2018-09-11T13:00:13.703Z,101560.89
2018-09-11T13:02:42.065Z,101552.91
2018-09-11T13:05:10.462Z,101553.30
2018-09-11T13:07:39.691Z,101539.48
2018-09-11T13:10:08.107Z,101539.02
2018-09-11T13:12:36.479Z,101543.48
2018-09-11T13:15:05.484Z,101540.77
2018-09-11T13:17:33.785Z,101543.61
2018-09-11T13:20:02.181Z,101536.92
2018-09-11T13:22:30.574Z,101521.90
2018-09-11T13:24:58.998Z,101546.90
2018-09-11T13:27:27.370Z,101533.03
2018-09-11T13:29:55.762Z,101546.59
2018-09-11T13:32:24.147Z,101548.99
2018-09-11T13:34:52.550Z,101537.48
2018-09-11T13:37:20.911Z,101535.03
2018-09-11T13:39:49.311Z,101538.66
2018-09-11T13:42:17.679Z,101536.06
2018-09-11T13:44:46.070Z,101534.70
2018-09-11T13:47:14.561Z,101531.70
2018-09-11T13:49:42.859Z,101525.84
2018-09-11T13:52:11.235Z,101529.09
2018-09-11T13:54:39.626Z,101524.04
2018-09-11T13:57:07.998Z,101524.84
2018-09-11T13:59:36.484Z,101538.75
2018-09-11T14:02:05.052Z,101530.89
2018-09-11T14:04:33.442Z,101529.75
2018-09-11T14:07:01.814Z,101532.84
2018-09-11T14:09:30.212Z,101529.42
2018-09-11T14:11:58.586Z,101518.23
2018-09-11T14:14:26.995Z,101521.14
2018-09-11T14:16:55.373Z,101526.52
2018-09-11T14:19:23.770Z,101522.05
2018-09-11T14:21:52.167Z,101523.05
2018-09-11T14:24:20.562Z,101527.23
2018-09-11T14:26:49.019Z,101528.42
2018-09-11T14:29:17.414Z,101515.76
2018-09-11T14:31:45.885Z,101521.82
2018-09-11T14:34:14.367Z,101524.15
2018-09-11T14:36:42.755Z,101518.14
2018-09-11T14:39:11.993Z,101515.57
2018-09-11T14:41:40.642Z,101525.75
2018-09-11T14:44:09.051Z,101519.70
2018-09-11T14:46:37.577Z,101529.63
2018-09-11T14:49:06.223Z,101529.16
2018-09-11T14:51:34.640Z,101523.31
2018-09-11T14:54:03.041Z,101512.23
2018-09-11T14:56:31.438Z,101514.09
2018-09-11T14:58:59.826Z,101511.61
2018-09-11T15:01:28.243Z,101511.83
2018-09-11T15:03:56.727Z,101508.06
2018-09-11T15:06:25.116Z,101510.13
2018-09-11T15:08:53.638Z,101507.66
2018-09-11T15:11:22.066Z,101511.02
2018-09-11T15:13:50.551Z,101503.16
2018-09-11T15:16:18.950Z,101496.22
2018-09-11T15:18:47.363Z,101500.29
2018-09-11T15:21:15.781Z,101500.30
2018-09-11T15:23:44.154Z,101509.62
2018-09-11T15:26:12.546Z,101520.73
2018-09-11T15:28:40.918Z,101515.98
2018-09-11T15:31:09.318Z,101511.98
2018-09-11T15:33:37.741Z,101510.66
2018-09-11T15:36:06.183Z,101509.27
2018-09-11T15:38:34.577Z,101507.09
2018-09-11T15:41:02.979Z,101504.42
2018-09-11T15:43:31.356Z,101495.16
2018-09-11T15:45:59.876Z,101498.77
2018-09-11T15:48:28.242Z,101488.98
2018-09-11T15:50:56.640Z,101482.72
2018-09-11T15:53:25.009Z,101477.20
2018-09-11T15:55:53.542Z,101481.45
2018-09-11T15:58:21.886Z,101477.41
2018-09-11T16:00:50.279Z,101481.87
2018-09-11T16:03:18.654Z,101490.77
2018-09-11T16:05:47.042Z,101485.00
2018-09-11T16:08:15.406Z,101490.72
2018-09-11T16:10:43.794Z,101494.19
2018-09-11T16:13:12.162Z,101491.00
2018-09-11T16:15:40.562Z,101491.86
2018-09-11T16:18:08.942Z,101495.39
2018-09-11T16:20:37.343Z,101493.66
2018-09-11T16:23:05.881Z,101502.64
2018-09-11T16:25:34.280Z,101498.41
2018-09-11T16:28:02.652Z,101503.91
2018-09-11T16:30:31.053Z,101510.78
2018-09-11T16:32:59.424Z,101496.84
2018-09-11T16:35:27.814Z,101496.75
2018-09-11T16:37:56.187Z,101490.87
2018-09-11T16:40:24.583Z,101494.22
2018-09-11T16:42:53.170Z,101496.23
2018-09-11T16:45:21.622Z,101494.77
2018-09-11T16:47:49.998Z,101496.26
2018-09-11T16:50:18.366Z,101504.45
2018-09-11T16:52:46.863Z,101511.26
2018-09-11T16:55:15.238Z,101499.89
2018-09-11T16:57:43.638Z,101503.14
2018-09-11T17:00:12.014Z,101501.07
2018-09-11T17:02:40.446Z,101491.86
2018-09-11T17:05:08.838Z,101495.10
2018-09-11T17:07:37.287Z,101492.95
2018-09-11T17:10:05.899Z,101494.87
2018-09-11T17:12:34.299Z,101498.08
2018-09-11T17:15:02.820Z,101503.11
2018-09-11T17:17:31.234Z,101500.11
2018-09-11T17:19:59.606Z,101504.64
2018-09-11T17:22:28.027Z,101505.62
2018-09-11T17:24:56.502Z,101507.45
2018-09-11T17:27:24.894Z,101503.19
2018-09-11T17:29:53.266Z,101508.59
2018-09-11T17:32:21.668Z,101504.25
2018-09-11T17:34:50.207Z,101509.63
2018-09-11T17:37:18.751Z,101510.25
2018-09-11T17:39:47.132Z,101514.28
2018-09-11T17:42:15.540Z,101511.27
2018-09-11T17:44:43.907Z,101510.88
2018-09-11T17:47:12.306Z,101510.95
2018-09-11T17:49:40.682Z,101507.91
2018-09-11T17:52:09.088Z,101507.55
2018-09-11T17:54:37.465Z,101513.40
2018-09-11T17:57:05.955Z,101510.83
2018-09-11T17:59:34.335Z,101517.53
2018-09-11T18:02:02.752Z,101519.83
2018-09-11T18:04:31.148Z,101525.64
2018-09-11T18:06:59.546Z,101519.05
2018-09-11T18:09:27.924Z,101527.94
2018-09-11T18:11:56.328Z,101525.79
2018-09-11T18:14:24.694Z,101524.57
2018-09-11T18:16:53.108Z,101540.53
2018-09-11T18:19:21.475Z,101534.47
2018-09-11T18:21:49.887Z,101542.36
2018-09-11T18:24:18.255Z,101544.66
2018-09-11T18:26:46.651Z,101544.73
2018-09-11T18:29:15.030Z,101539.89
2018-09-11T18:31:43.431Z,101543.55
2018-09-11T18:34:11.798Z,101541.00
2018-09-11T18:36:40.228Z,101544.19
2018-09-11T18:39:09.601Z,101550.89
2018-09-11T18:41:38.023Z,101557.59
2018-09-11T18:44:06.520Z,101564.33
2018-09-11T18:46:34.931Z,101559.98
2018-09-11T18:49:03.518Z,101564.46
2018-09-11T18:51:31.938Z,101572.89
2018-09-11T18:54:00.310Z,101582.24
2018-09-11T18:56:28.678Z,101584.96
2018-09-11T18:58:57.071Z,101595.67
2018-09-11T19:01:25.438Z,101597.96
2018-09-11T19:03:53.831Z,101604.69
2018-09-11T19:06:22.198Z,101598.16
2018-09-11T19:08:50.586Z,101602.70
2018-09-11T19:11:18.964Z,101604.15
2018-09-11T19:13:47.363Z,101613.59
2018-09-11T19:16:15.755Z,101614.15
2018-09-11T19:18:44.151Z,101615.20
2018-09-11T19:21:12.554Z,101621.95
2018-09-11T19:23:40.943Z,101625.56
2018-09-11T19:26:09.315Z,101623.49
2018-09-11T19:28:37.721Z,101615.26
2018-09-11T19:31:06.237Z,101615.78
2018-09-11T19:33:34.626Z,101616.73
2018-09-11T19:36:03.007Z,101623.45
2018-09-11T19:38:31.423Z,101621.78
2018-09-11T19:40:59.794Z,101632.47
2018-09-11T19:43:28.191Z,101639.21
2018-09-11T19:45:56.563Z,101636.30
2018-09-11T19:48:24.963Z,101633.41
2018-09-11T19:50:53.335Z,101641.13
2018-09-11T19:53:21.731Z,101641.38
2018-09-11T19:55:50.107Z,101633.56
2018-09-11T19:58:18.575Z,101638.56
2018-09-11T20:00:47.022Z,101636.09
2018-09-11T20:03:15.418Z,101637.96
2018-09-11T20:05:43.786Z,101638.48
2018-09-11T20:08:12.185Z,101642.14
2018-09-11T20:10:40.558Z,101649.72
2018-09-11T20:13:08.958Z,101657.76
2018-09-11T20:15:37.326Z,101655.67
2018-09-11T20:18:05.754Z,101654.42
2018-09-11T20:20:34.199Z,101654.03
2018-09-11T20:23:02.674Z,101654.16
2018-09-11T20:25:31.084Z,101659.10
2018-09-11T20:27:59.462Z,101664.06
2018-09-11T20:30:27.839Z,101657.14
2018-09-11T20:32:56.239Z,101658.95
2018-09-11T20:35:24.712Z,101663.86
2018-09-11T20:37:53.102Z,101653.75
2018-09-11T20:40:21.470Z,101657.34
2018-09-11T20:42:49.891Z,101658.27
2018-09-11T20:45:18.264Z,101655.68
2018-09-11T20:47:46.638Z,101656.61
2018-09-11T20:50:15.039Z,101656.65
2018-09-11T20:52:43.414Z,101662.02
2018-09-11T20:55:11.848Z,101666.03
2018-09-11T20:57:40.217Z,101667.39
2018-09-11T21:00:08.630Z,101663.03
2018-09-11T21:02:37.002Z,101667.52
2018-09-11T21:05:05.402Z,101669.78
2018-09-11T21:07:33.775Z,101668.06
2018-09-11T21:10:02.172Z,101665.88
2018-09-11T21:12:30.551Z,101665.03
2018-09-11T21:14:58.960Z,101669.02
2018-09-11T21:17:27.334Z,101675.67
2018-09-11T21:19:55.731Z,101662.92
2018-09-11T21:22:24.162Z,101663.80
2018-09-11T21:24:52.573Z,101660.76
2018-09-11T21:27:20.985Z,101662.53
2018-09-11T21:29:49.379Z,101668.70
2018-09-11T21:32:17.759Z,101671.80
2018-09-11T21:34:46.154Z,101677.09
2018-09-11T21:37:14.530Z,101672.73
2018-09-11T21:39:42.926Z,101671.00
2018-09-11T21:42:11.299Z,101678.51
2018-09-11T21:44:39.694Z,101675.42
2018-09-11T21:47:08.070Z,101680.30
2018-09-11T21:49:36.470Z,101680.76
2018-09-11T21:52:04.897Z,101675.03
2018-09-11T21:54:33.272Z,101677.67
2018-09-11T21:57:01.646Z,101685.14
2018-09-11T21:59:30.042Z,101681.63
2018-09-11T22:02:01.757Z,101682.08
2018-09-11T22:04:30.210Z,101681.19
2018-09-11T22:06:58.626Z,101683.83
2018-09-11T22:09:27.026Z,101685.60
2018-09-11T22:11:55.467Z,101683.01
2018-09-11T22:14:23.840Z,101679.92
2018-09-11T22:16:52.213Z,101682.16
2018-09-11T22:19:20.632Z,101686.58
2018-09-11T22:21:49.043Z,101692.28
2018-09-11T22:24:17.443Z,101693.20
2018-09-11T22:26:45.818Z,101687.92
2018-09-11T22:29:14.210Z,101691.48
2018-09-11T22:31:42.586Z,101683.15
2018-09-11T22:34:10.984Z,101680.11
2018-09-11T22:36:39.367Z,101676.62
2018-09-11T22:39:08.427Z,101673.13
2018-09-11T22:41:36.825Z,101668.77
2018-09-11T22:44:05.238Z,101663.09
2018-09-11T22:46:33.625Z,101656.95
2018-09-11T22:49:02.038Z,101659.20
2018-09-11T22:51:30.423Z,101661.44
2018-09-11T22:53:58.793Z,101653.98
2018-09-11T22:56:27.190Z,101658.82
2018-09-11T22:58:55.567Z,101658.41
2018-09-11T23:01:23.966Z,101660.64
2018-09-11T23:03:52.343Z,101661.97
2018-09-11T23:06:20.911Z,101658.42
2018-09-11T23:08:49.294Z,101657.55
2018-09-11T23:11:17.695Z,101667.66
2018-09-11T23:13:46.072Z,101660.14
2018-09-11T23:16:14.470Z,101662.38
2018-09-11T23:18:42.850Z,101663.28
2018-09-11T23:21:11.253Z,101656.69
2018-09-11T23:23:39.646Z,101656.23
2018-09-11T23:26:08.178Z,101654.46
2018-09-11T23:28:36.562Z,101661.06
2018-09-11T23:31:04.964Z,101657.56
2018-09-11T23:33:33.339Z,101656.23
2018-09-11T23:36:01.749Z,101657.15
2018-09-11T23:38:30.135Z,101653.59
2018-09-11T23:40:58.534Z,101645.27
2018-09-11T23:43:26.930Z,101638.20
2018-09-11T23:45:55.332Z,101636.43
2018-09-11T23:48:23.711Z,101635.56
2018-09-11T23:50:52.111Z,101632.06
2018-09-11T23:53:20.482Z,101630.28
2018-09-11T23:55:48.887Z,101626.31
2018-09-11T23:58:17.265Z,101626.31
